sensor_id;sensor_type;location;lat;lon;timestamp;temperature;humidity
51273;DHT22;37345;59.828;30.328;2022-07-21T00:09:39;18.40;99.90
51273;DHT22;37345;59.828;30.328;2022-07-21T00:46:12;18.10;99.90
51273;DHT22;37345;59.828;30.328;2022-07-21T01:47:38;18.10;99.90
51273;DHT22;37345;59.828;30.328;2022-07-21T01:50:06;18.10;99.90
51273;DHT22;37345;59.828;30.328;2022-07-21T01:52:33;18.10;99.90
51273;DHT22;37345;59.828;30.328;2022-07-21T01:57:25;19.20;99.90
51273;DHT22;37345;59.828;30.328;2022-07-21T02:21:50;22.00;99.90
51273;DHT22;37345;59.828;30.328;2022-07-21T02:41:20;23.70;99.90
51273;DHT22;37345;59.828;30.328;2022-07-21T02:43:46;23.70;99.90
51273;DHT22;37345;59.828;30.328;2022-07-21T02:46:12;23.90;99.90
51273;DHT22;37345;59.828;30.328;2022-07-21T02:48:37;23.70;99.90
51273;DHT22;37345;59.828;30.328;2022-07-21T02:51:03;23.70;99.90
51273;DHT22;37345;59.828;30.328;2022-07-21T02:53:29;23.60;99.90
51273;DHT22;37345;59.828;30.328;2022-07-21T02:55:55;23.70;99.90
51273;DHT22;37345;59.828;30.328;2022-07-21T02:58:26;23.90;99.90
51273;DHT22;37345;59.828;30.328;2022-07-21T03:00:54;24.20;99.90
51273;DHT22;37345;59.828;30.328;2022-07-21T03:03:22;24.40;99.90
51273;DHT22;37345;59.828;30.328;2022-07-21T03:05:49;24.40;99.90
51273;DHT22;37345;59.828;30.328;2022-07-21T03:08:15;24.50;99.90
51273;DHT22;37345;59.828;30.328;2022-07-21T03:10:42;24.50;99.90
51273;DHT22;37345;59.828;30.328;2022-07-21T03:13:08;24.70;99.90
51273;DHT22;37345;59.828;30.328;2022-07-21T03:15:34;24.80;99.90
51273;DHT22;37345;59.828;30.328;2022-07-21T03:18:00;24.60;99.90
51273;DHT22;37345;59.828;30.328;2022-07-21T03:20:28;24.50;99.90
51273;DHT22;37345;59.828;30.328;2022-07-21T03:22:54;24.80;99.90
51273;DHT22;37345;59.828;30.328;2022-07-21T03:25:20;24.90;99.90
51273;DHT22;37345;59.828;30.328;2022-07-21T03:27:47;25.10;99.90
51273;DHT22;37345;59.828;30.328;2022-07-21T03:30:14;24.90;99.90
51273;DHT22;37345;59.828;30.328;2022-07-21T03:32:40;24.90;99.90
51273;DHT22;37345;59.828;30.328;2022-07-21T03:35:07;25.00;99.90
51273;DHT22;37345;59.828;30.328;2022-07-21T03:37:43;25.00;99.90
51273;DHT22;37345;59.828;30.328;2022-07-21T03:40:18;25.20;99.90
51273;DHT22;37345;59.828;30.328;2022-07-21T03:42:45;26.10;99.90
51273;DHT22;37345;59.828;30.328;2022-07-21T03:45:11;25.70;99.90
51273;DHT22;37345;59.828;30.328;2022-07-21T03:47:49;25.00;99.90
51273;DHT22;37345;59.828;30.328;2022-07-21T03:50:20;25.20;99.90
51273;DHT22;37345;59.828;30.328;2022-07-21T03:52:49;25.50;99.90
51273;DHT22;37345;59.828;30.328;2022-07-21T03:55:15;25.70;99.90
51273;DHT22;37345;59.828;30.328;2022-07-21T04:00:27;25.70;99.90
51273;DHT22;37345;59.828;30.328;2022-07-21T04:02:53;26.70;99.90
51273;DHT22;37345;59.828;30.328;2022-07-21T04:05:19;27.10;99.90
51273;DHT22;37345;59.828;30.328;2022-07-21T04:10:15;25.80;99.90
51273;DHT22;37345;59.828;30.328;2022-07-21T04:15:08;26.80;99.90
51273;DHT22;37345;59.828;30.328;2022-07-21T04:22:29;27.30;99.90
51273;DHT22;37345;59.828;30.328;2022-07-21T04:24:55;27.50;99.90
51273;DHT22;37345;59.828;30.328;2022-07-21T04:29:47;27.60;99.90
51273;DHT22;37345;59.828;30.328;2022-07-21T04:34:39;27.70;99.90
51273;DHT22;37345;59.828;30.328;2022-07-21T04:37:05;27.00;99.90
51273;DHT22;37345;59.828;30.328;2022-07-21T04:39:31;26.40;99.90
51273;DHT22;37345;59.828;30.328;2022-07-21T04:41:57;26.10;99.90
51273;DHT22;37345;59.828;30.328;2022-07-21T04:44:22;25.80;99.90
51273;DHT22;37345;59.828;30.328;2022-07-21T04:46:48;25.30;99.90
51273;DHT22;37345;59.828;30.328;2022-07-21T04:49:14;25.70;99.90
51273;DHT22;37345;59.828;30.328;2022-07-21T04:51:40;26.00;99.90
51273;DHT22;37345;59.828;30.328;2022-07-21T04:54:07;26.40;99.90
51273;DHT22;37345;59.828;30.328;2022-07-21T04:56:33;26.60;99.90
51273;DHT22;37345;59.828;30.328;2022-07-21T04:59:01;26.90;99.90
51273;DHT22;37345;59.828;30.328;2022-07-21T05:01:27;27.10;99.90
51273;DHT22;37345;59.828;30.328;2022-07-21T05:03:53;27.30;99.90
51273;DHT22;37345;59.828;30.328;2022-07-21T05:06:19;26.70;99.90
51273;DHT22;37345;59.828;30.328;2022-07-21T05:08:45;26.80;99.90
51273;DHT22;37345;59.828;30.328;2022-07-21T05:11:10;27.00;99.90
51273;DHT22;37345;59.828;30.328;2022-07-21T05:13:36;26.70;99.90
51273;DHT22;37345;59.828;30.328;2022-07-21T05:16:02;26.90;99.90
51273;DHT22;37345;59.828;30.328;2022-07-21T05:18:28;27.70;99.90
51273;DHT22;37345;59.828;30.328;2022-07-21T05:20:54;27.60;99.90
51273;DHT22;37345;59.828;30.328;2022-07-21T05:23:20;28.00;99.90
51273;DHT22;37345;59.828;30.328;2022-07-21T05:25:45;28.10;99.90
51273;DHT22;37345;59.828;30.328;2022-07-21T05:28:11;27.30;99.90
51273;DHT22;37345;59.828;30.328;2022-07-21T05:30:37;27.30;99.90
51273;DHT22;37345;59.828;30.328;2022-07-21T05:35:29;27.20;99.90
51273;DHT22;37345;59.828;30.328;2022-07-21T06:48:36;28.80;99.90
51273;DHT22;37345;59.828;30.328;2022-07-21T06:51:02;28.20;99.90
51273;DHT22;37345;59.828;30.328;2022-07-21T06:53:28;28.00;99.90
51273;DHT22;37345;59.828;30.328;2022-07-21T06:55:54;28.10;99.90
51273;DHT22;37345;59.828;30.328;2022-07-21T06:58:22;28.20;99.90
51273;DHT22;37345;59.828;30.328;2022-07-21T07:00:52;28.60;99.90
51273;DHT22;37345;59.828;30.328;2022-07-21T07:03:19;29.00;99.90
51273;DHT22;37345;59.828;30.328;2022-07-21T07:05:46;29.00;99.90
51273;DHT22;37345;59.828;30.328;2022-07-21T07:10:40;28.90;99.90
51273;DHT22;37345;59.828;30.328;2022-07-21T07:13:10;29.30;99.90
51273;DHT22;37345;59.828;30.328;2022-07-21T07:15:37;28.90;99.90
51273;DHT22;37345;59.828;30.328;2022-07-21T07:18:03;29.00;99.90
51273;DHT22;37345;59.828;30.328;2022-07-21T07:25:27;29.40;99.90
51273;DHT22;37345;59.828;30.328;2022-07-21T07:27:53;29.70;99.90
51273;DHT22;37345;59.828;30.328;2022-07-21T07:30:20;29.80;99.90
51273;DHT22;37345;59.828;30.328;2022-07-21T07:32:46;29.40;99.90
51273;DHT22;37345;59.828;30.328;2022-07-21T07:35:17;29.50;99.90
51273;DHT22;37345;59.828;30.328;2022-07-21T07:37:44;29.00;99.90
51273;DHT22;37345;59.828;30.328;2022-07-21T07:42:38;30.00;99.90
51273;DHT22;37345;59.828;30.328;2022-07-21T07:45:06;29.60;99.90
51273;DHT22;37345;59.828;30.328;2022-07-21T07:47:32;29.60;99.90
51273;DHT22;37345;59.828;30.328;2022-07-21T07:49:58;29.70;99.90
51273;DHT22;37345;59.828;30.328;2022-07-21T07:52:24;29.30;99.90
51273;DHT22;37345;59.828;30.328;2022-07-21T07:54:50;29.20;99.90
51273;DHT22;37345;59.828;30.328;2022-07-21T07:57:16;28.40;99.90
51273;DHT22;37345;59.828;30.328;2022-07-21T07:59:42;28.40;99.90
51273;DHT22;37345;59.828;30.328;2022-07-21T08:02:08;28.80;99.90
51273;DHT22;37345;59.828;30.328;2022-07-21T08:04:34;29.50;99.90
51273;DHT22;37345;59.828;30.328;2022-07-21T08:07:02;29.70;99.90
51273;DHT22;37345;59.828;30.328;2022-07-21T08:09:28;29.40;99.90
51273;DHT22;37345;59.828;30.328;2022-07-21T08:16:52;29.10;99.90
51273;DHT22;37345;59.828;30.328;2022-07-21T08:19:18;30.00;99.90
51273;DHT22;37345;59.828;30.328;2022-07-21T08:21:54;30.00;99.90
51273;DHT22;37345;59.828;30.328;2022-07-21T08:26:46;29.30;99.90
51273;DHT22;37345;59.828;30.328;2022-07-21T08:29:12;29.30;99.90
51273;DHT22;37345;59.828;30.328;2022-07-21T08:41:22;29.10;99.90
51273;DHT22;37345;59.828;30.328;2022-07-21T08:46:21;29.40;99.90
51273;DHT22;37345;59.828;30.328;2022-07-21T08:56:12;28.70;99.90
51273;DHT22;37345;59.828;30.328;2022-07-21T09:06:10;28.00;99.90
51273;DHT22;37345;59.828;30.328;2022-07-21T09:23:53;28.70;99.90
51273;DHT22;37345;59.828;30.328;2022-07-21T09:31:50;28.90;99.90
51273;DHT22;37345;59.828;30.328;2022-07-21T10:00:00;28.30;99.90
51273;DHT22;37345;59.828;30.328;2022-07-21T12:45:21;27.10;99.90
51273;DHT22;37345;59.828;30.328;2022-07-21T12:48:06;27.20;99.90
51273;DHT22;37345;59.828;30.328;2022-07-21T12:57:51;27.20;99.90
51273;DHT22;37345;59.828;30.328;2022-07-21T13:17:40;27.40;99.90
51273;DHT22;37345;59.828;30.328;2022-07-21T13:49:26;27.10;99.90
